Time;durP1;ratioP1;P1;durP2;ratioP2;P2;SDS_P1;SDS_P2;PMS_P1;PMS_P2;Temp;Humidity;BMP_temperature;BMP_pressure;BME280_temperature;BME280_humidity;BME280_pressure;Samples;Min_cycle;Max_cycle;Signal;HPM_P1;HPM_P2
2023/02/26 00:00:16;;;;;;;7.82;3.42;;;-1.30;99.90;;;;;;6129983;23;20056;-83
2023/02/26 00:03:03;;;;;;;6.50;3.83;;;-1.40;99.90;;;;;;6157799;23;20013;-83
2023/02/26 00:05:50;;;;;;;6.05;3.08;;;-1.30;99.90;;;;;;6160385;23;20422;-82
2023/02/26 00:08:37;;;;;;;8.93;2.90;;;-1.30;99.90;;;;;;6150943;23;20402;-85
2023/02/26 00:11:25;;;;;;;7.78;3.30;;;-1.30;99.90;;;;;;6134869;23;20047;-83
2023/02/26 00:14:14;;;;;;;8.63;3.67;;;-1.30;99.90;;;;;;6132735;22;20026;-83
2023/02/26 00:17:06;;;;;;;7.53;3.65;;;-1.30;99.90;;;;;;6132475;23;20065;-85
2023/02/26 00:19:54;;;;;;;;;;;-1.40;99.90;;;;;;6152350;23;20029;-84
2023/02/26 00:22:42;;;;;;;7.00;3.13;;;-1.40;99.90;;;;;;6151375;23;19917;-83
2023/02/26 00:25:29;;;;;;;7.05;3.40;;;-1.50;99.90;;;;;;6152596;23;20022;-84
2023/02/26 00:28:17;;;;;;;8.88;3.65;;;-1.50;99.90;;;;;;6152405;23;20026;-85
2023/02/26 00:31:05;;;;;;;11.02;3.35;;;-1.60;99.90;;;;;;6129784;23;20106;-83
2023/02/26 00:33:55;;;;;;;5.70;3.45;;;-1.70;99.90;;;;;;6152476;23;20048;-84
2023/02/26 00:36:57;;;;;;;10.23;3.58;;;-1.80;99.90;;;;;;6152740;23;20026;-83
2023/02/26 00:39:47;;;;;;;6.23;3.77;;;-1.80;99.90;;;;;;6150991;23;20105;-82
2023/02/26 00:42:34;;;;;;;9.27;4.13;;;-1.80;99.90;;;;;;6150681;23;20691;-85
2023/02/26 00:45:24;;;;;;;6.88;4.20;;;-1.90;99.90;;;;;;6151277;23;20110;-82
2023/02/26 00:48:43;;;;;;;7.78;3.33;;;-2.00;99.90;;;;;;6152359;23;20409;-85
2023/02/26 00:51:57;;;;;;;7.03;3.72;;;-2.00;99.90;;;;;;6130571;23;20040;-83
2023/02/26 00:54:47;;;;;;;7.35;3.45;;;-2.00;99.90;;;;;;6138424;23;20036;-81
2023/02/26 00:57:38;;;;;;;8.35;3.80;;;-2.00;99.90;;;;;;6156775;23;20056;-82
2023/02/26 01:00:26;;;;;;;6.38;4.30;;;-2.00;99.90;;;;;;6152943;22;20344;-83
2023/02/26 01:03:13;;;;;;;7.22;3.53;;;-2.00;99.90;;;;;;6150777;23;20025;-84
2023/02/26 01:06:01;;;;;;;7.50;3.70;;;-2.10;99.90;;;;;;6152209;23;20045;-83
2023/02/26 01:09:10;;;;;;;6.25;3.60;;;-2.20;99.90;;;;;;6131926;23;20097;-80
2023/02/26 01:12:01;;;;;;;4.75;3.58;;;-2.00;99.90;;;;;;6151043;23;20036;-82
2023/02/26 01:14:49;;;;;;;8.88;4.00;;;-2.00;99.90;;;;;;6153071;22;20029;-85
2023/02/26 01:17:55;;;;;;;7.70;3.72;;;-2.00;99.90;;;;;;6150883;23;20040;-82
2023/02/26 01:20:52;;;;;;;7.78;3.47;;;-2.10;99.90;;;;;;6129385;23;20041;-81
2023/02/26 01:23:45;;;;;;;8.55;3.90;;;-1.90;99.90;;;;;;6151711;23;20030;-82
2023/02/26 01:26:32;;;;;;;7.53;3.95;;;-2.00;99.90;;;;;;6151808;23;20059;-84
2023/02/26 01:29:20;;;;;;;5.75;3.40;;;-2.10;99.90;;;;;;6152860;23;20033;-82
2023/02/26 01:32:17;;;;;;;8.23;3.30;;;-2.00;99.90;;;;;;6129486;23;20297;-84
2023/02/26 01:35:26;;;;;;;9.80;3.60;;;-2.00;99.90;;;;;;6168358;23;20026;-84
2023/02/26 01:39:21;;;;;;;6.53;3.50;;;-2.00;99.90;;;;;;6174210;22;20049;-80
2023/02/26 01:42:18;;;;;;;5.50;3.13;;;-2.10;99.90;;;;;;6165794;23;20075;-85
2023/02/26 01:45:21;;;;;;;6.25;3.35;;;-2.10;99.90;;;;;;6171640;22;20026;-83
2023/02/26 01:48:22;;;;;;;10.32;3.97;;;-2.10;99.90;;;;;;6154540;23;20025;-84
2023/02/26 01:51:09;;;;;;;13.15;3.70;;;-2.20;99.90;;;;;;6151565;23;20072;-84
2023/02/26 01:53:56;;;;;;;8.20;3.60;;;-2.20;99.90;;;;;;6151288;23;20306;-84
2023/02/26 01:56:46;;;;;;;6.60;3.70;;;-2.20;99.90;;;;;;6151342;23;20035;-83
2023/02/26 01:59:40;;;;;;;8.07;3.65;;;-2.30;99.90;;;;;;6153271;23;20026;-83
2023/02/26 02:02:27;;;;;;;10.50;4.00;;;-2.20;99.90;;;;;;6152798;23;20118;-82
2023/02/26 02:05:23;;;;;;;8.27;3.55;;;-2.30;99.90;;;;;;6152877;22;20021;-82
2023/02/26 02:08:12;;;;;;;9.15;4.43;;;-2.30;99.90;;;;;;6151573;23;20028;-83
2023/02/26 02:11:00;;;;;;;6.70;3.42;;;-2.30;99.90;;;;;;6152903;23;20056;-83
2023/02/26 02:14:19;;;;;;;4.45;3.05;;;-2.30;99.90;;;;;;6133035;23;20026;-81
2023/02/26 02:17:22;;;;;;;4.90;3.42;;;-2.40;99.90;;;;;;6153582;23;20025;-83
2023/02/26 02:20:28;;;;;;;9.95;3.50;;;-2.50;99.90;;;;;;6151497;23;20025;-84
2023/02/26 02:23:34;;;;;;;6.72;3.65;;;-2.60;99.90;;;;;;6161216;23;20021;-82
2023/02/26 02:26:43;;;;;;;6.07;3.45;;;-2.60;99.90;;;;;;6152280;23;20030;-82
2023/02/26 02:29:49;;;;;;;9.18;3.70;;;-2.60;99.90;;;;;;6138411;23;20103;-82
2023/02/26 02:32:43;;;;;;;11.25;3.60;;;-2.50;99.90;;;;;;6154282;23;20025;-82
2023/02/26 02:35:54;;;;;;;5.88;3.00;;;-2.50;99.90;;;;;;6138523;23;20036;-83
2023/02/26 02:38:50;;;;;;;11.85;4.00;;;-2.40;99.90;;;;;;6134948;22;20030;-83
2023/02/26 02:41:43;;;;;;;8.23;3.53;;;-2.40;99.90;;;;;;6158340;22;20025;-82
2023/02/26 02:44:37;;;;;;;8.25;3.90;;;-2.50;99.90;;;;;;6130923;23;20087;-83
2023/02/26 02:47:26;;;;;;;7.32;3.17;;;-2.60;99.90;;;;;;6153391;23;20022;-82
2023/02/26 02:50:24;;;;;;;7.28;3.22;;;-2.70;99.90;;;;;;6132497;23;20029;-82
2023/02/26 02:53:23;;;;;;;10.88;3.47;;;-2.80;99.90;;;;;;6152689;23;20029;-84
2023/02/26 02:56:31;;;;;;;8.88;3.60;;;-2.90;99.90;;;;;;6132053;23;20083;-82
2023/02/26 02:59:23;;;;;;;5.70;3.13;;;-2.80;99.90;;;;;;6152283;23;20029;-83
2023/02/26 03:02:14;;;;;;;6.53;3.95;;;-2.90;99.90;;;;;;6157460;23;20022;-84
2023/02/26 03:05:04;;;;;;;10.13;3.85;;;-3.00;99.90;;;;;;6167529;23;20025;-84
2023/02/26 03:08:05;;;;;;;13.23;4.43;;;-3.10;99.90;;;;;;6167826;23;20021;-83
2023/02/26 03:10:52;;;;;;;10.48;3.50;;;-3.10;99.90;;;;;;6162423;23;20021;-83
2023/02/26 03:13:40;;;;;;;10.07;4.03;;;-3.20;99.90;;;;;;6131728;23;20029;-84
2023/02/26 03:16:39;;;;;;;6.63;3.22;;;-3.30;1.00;;;;;;6153003;22;20118;-81
2023/02/26 03:19:30;;;;;;;5.75;3.83;;;-3.30;1.00;;;;;;6151578;23;20021;-82
2023/02/26 03:22:43;;;;;;;7.03;4.22;;;-3.30;1.00;;;;;;6153612;22;20424;-84
2023/02/26 03:25:43;;;;;;;7.00;3.92;;;-3.30;1.00;;;;;;6156294;23;20094;-83
2023/02/26 03:28:57;;;;;;;6.25;3.50;;;-3.40;1.00;;;;;;6129809;23;20025;-84
2023/02/26 03:31:58;;;;;;;7.43;3.60;;;-3.50;1.00;;;;;;6122299;23;20057;-81
2023/02/26 03:35:01;;;;;;;5.32;3.13;;;-3.40;1.00;;;;;;6150992;22;20030;-83
2023/02/26 03:37:50;;;;;;;;;;;-3.50;1.00;;;;;;6150968;23;20118;-84
2023/02/26 03:41:01;;;;;;;6.15;3.63;;;-3.50;22.00;;;;;;6152502;23;19916;-83
2023/02/26 03:44:00;;;;;;;7.47;3.47;;;-3.60;52.80;;;;;;6134462;23;20363;-81
2023/02/26 03:46:53;;;;;;;9.82;3.90;;;-3.50;99.90;;;;;;6151464;23;20025;-82
2023/02/26 03:50:17;;;;;;;10.93;4.03;;;-3.50;99.90;;;;;;6151806;23;20091;-83
2023/02/26 03:53:09;;;;;;;9.57;3.63;;;-3.50;99.90;;;;;;6042182;23;20422;-84
2023/02/26 03:56:28;;;;;;;12.30;3.95;;;-3.50;99.90;;;;;;6130644;23;20056;-83
2023/02/26 03:59:16;;;;;;;9.85;3.60;;;-3.60;99.90;;;;;;6158435;22;20029;-83
2023/02/26 04:02:17;;;;;;;9.70;3.88;;;-3.60;99.90;;;;;;6149488;23;20118;-83
2023/02/26 04:05:07;;;;;;;10.63;4.03;;;-3.60;99.90;;;;;;6151788;22;20109;-83
2023/02/26 04:07:56;;;;;;;5.70;3.78;;;-3.70;99.90;;;;;;6150168;23;20034;-84
2023/02/26 04:10:54;;;;;;;9.90;4.05;;;-3.80;99.90;;;;;;6130443;23;20032;-82
2023/02/26 04:13:44;;;;;;;9.30;3.97;;;-3.80;99.90;;;;;;6160981;23;20036;-81
2023/02/26 04:16:31;;;;;;;9.85;3.92;;;-3.90;99.90;;;;;;6153370;23;20025;-81
2023/02/26 04:19:19;;;;;;;9.20;4.72;;;-4.00;99.90;;;;;;6128645;23;20026;-83
2023/02/26 04:22:06;;;;;;;10.68;4.25;;;-4.10;99.90;;;;;;6149664;23;20021;-84
2023/02/26 04:24:53;;;;;;;6.70;3.75;;;-4.10;99.90;;;;;;6151285;23;20087;-84
2023/02/26 04:27:40;;;;;;;6.28;4.10;;;-4.10;99.90;;;;;;6131563;23;20041;-83
2023/02/26 04:30:28;;;;;;;15.02;4.32;;;-4.20;99.90;;;;;;6151094;23;20025;-83
2023/02/26 04:33:15;;;;;;;7.90;3.88;;;-4.30;1.00;;;;;;6130888;23;20029;-83
2023/02/26 04:36:05;;;;;;;13.18;4.47;;;-4.40;1.00;;;;;;6129535;23;20478;-83
2023/02/26 04:38:52;;;;;;;12.05;4.15;;;-4.30;99.90;;;;;;6157040;22;20057;-82
2023/02/26 04:41:39;;;;;;;8.48;4.07;;;-4.40;99.90;;;;;;6150051;23;20033;-83
2023/02/26 04:44:27;;;;;;;8.23;4.38;;;-4.40;1.00;;;;;;6152974;23;20022;-84
2023/02/26 04:47:16;;;;;;;7.75;4.70;;;-4.40;1.00;;;;;;6149813;23;20103;-83
2023/02/26 04:50:03;;;;;;;8.45;3.78;;;-4.30;99.90;;;;;;6150714;23;20026;-81
2023/02/26 04:52:51;;;;;;;11.15;4.53;;;-4.30;99.90;;;;;;6149305;23;20040;-82
2023/02/26 04:55:39;;;;;;;9.13;4.50;;;-4.20;99.90;;;;;;6148816;23;20414;-83
2023/02/26 04:58:27;;;;;;;8.80;5.00;;;-4.20;99.90;;;;;;6159727;23;20049;-82
2023/02/26 05:05:22;;;;;;;9.88;4.47;;;-4.40;99.90;;;;;;6170807;22;20032;-82
2023/02/26 05:08:10;;;;;;;8.27;4.75;;;-4.40;1.00;;;;;;6156028;22;20021;-80
2023/02/26 05:10:57;;;;;;;8.15;4.75;;;-4.40;55.90;;;;;;6173319;22;20025;-81
2023/02/26 05:13:45;;;;;;;9.40;4.78;;;-4.40;99.90;;;;;;6176596;22;20099;-80
2023/02/26 05:16:32;;;;;;;9.73;4.65;;;-4.40;99.90;;;;;;6174275;23;20021;-82
2023/02/26 05:19:19;;;;;;;12.18;5.10;;;-4.30;99.90;;;;;;6172527;23;20125;-80
2023/02/26 05:22:07;;;;;;;16.58;5.75;;;-4.30;99.90;;;;;;6172862;23;20013;-83
2023/02/26 05:24:54;;;;;;;14.85;5.15;;;-4.30;99.90;;;;;;6168064;23;20036;-83
2023/02/26 05:27:42;;;;;;;8.98;4.60;;;-4.30;99.90;;;;;;6156991;23;20021;-85
2023/02/26 05:30:29;;;;;;;10.32;4.47;;;-4.20;99.90;;;;;;6157488;23;20021;-83
2023/02/26 05:33:18;;;;;;;13.35;5.60;;;-4.20;99.90;;;;;;6153326;23;20029;-83
2023/02/26 05:36:06;;;;;;;10.73;4.72;;;-4.10;99.90;;;;;;6131483;23;20039;-81
2023/02/26 05:38:55;;;;;;;12.23;4.78;;;-4.00;99.90;;;;;;6131951;23;20105;-83
2023/02/26 05:41:45;;;;;;;11.45;4.82;;;-4.00;99.90;;;;;;6148679;23;20026;-81
2023/02/26 05:44:32;;;;;;;10.30;4.60;;;-4.00;20.80;;;;;;6130800;23;20032;-84
2023/02/26 05:47:20;;;;;;;8.30;4.65;;;-4.10;1.00;;;;;;6150816;23;20033;-83
2023/02/26 05:50:08;;;;;;;7.35;4.75;;;-4.30;1.00;;;;;;6160420;22;20085;-81
2023/02/26 05:52:56;;;;;;;10.80;4.18;;;-4.40;1.00;;;;;;6164860;23;20029;-82
2023/02/26 05:55:43;;;;;;;9.10;4.63;;;-4.50;99.90;;;;;;6141670;22;20053;-82
2023/02/26 05:58:32;;;;;;;8.10;4.50;;;-4.50;99.90;;;;;;6162377;23;20033;-83
2023/02/26 06:01:20;;;;;;;8.63;4.32;;;-4.50;1.00;;;;;;6161067;23;20026;-82
2023/02/26 06:04:07;;;;;;;15.10;5.07;;;-4.50;1.00;;;;;;6138587;23;20025;-84
2023/02/26 06:06:54;;;;;;;10.60;5.15;;;-4.50;1.00;;;;;;6158300;23;20030;-81
2023/02/26 06:09:42;;;;;;;12.32;5.20;;;-4.40;99.90;;;;;;6162870;23;20045;-80
2023/02/26 06:12:29;;;;;;;8.10;4.57;;;-4.40;99.90;;;;;;6137819;23;20072;-79
2023/02/26 06:15:21;;;;;;;7.13;4.75;;;-4.40;99.90;;;;;;6138936;23;20026;-81
2023/02/26 06:18:08;;;;;;;13.60;5.28;;;-4.40;99.90;;;;;;6161008;23;20493;-82
2023/02/26 06:20:58;;;;;;;7.80;4.78;;;-4.40;99.90;;;;;;6158416;23;20026;-82
2023/02/26 06:23:48;;;;;;;15.50;5.45;;;-4.30;99.90;;;;;;6160788;23;20025;-82
2023/02/26 06:26:35;;;;;;;15.70;5.35;;;-4.30;99.90;;;;;;6119146;23;20032;-80
2023/02/26 06:29:25;;;;;;;13.55;4.82;;;-4.30;99.90;;;;;;6156002;23;20033;-82
2023/02/26 06:32:12;;;;;;;11.60;5.22;;;-4.30;99.90;;;;;;6135940;23;20029;-81
2023/02/26 06:35:00;;;;;;;9.95;5.00;;;-4.30;99.90;;;;;;6141859;23;20034;-81
2023/02/26 06:37:49;;;;;;;13.65;5.43;;;-4.40;99.90;;;;;;6139480;23;20025;-82
2023/02/26 06:40:37;;;;;;;12.35;5.47;;;-4.40;99.90;;;;;;6150842;22;20025;-81
2023/02/26 06:43:24;;;;;;;9.88;5.50;;;-4.30;99.90;;;;;;6156944;23;20040;-82
2023/02/26 06:46:13;;;;;;;17.75;5.65;;;-4.20;1.00;;;;;;6132841;23;20743;-84
2023/02/26 06:49:01;;;;;;;16.60;5.90;;;-4.20;99.90;;;;;;6154591;23;20058;-82
2023/02/26 06:51:50;;;;;;;18.48;5.80;;;-4.20;99.90;;;;;;6154297;23;20079;-82
2023/02/26 06:54:38;;;;;;;10.73;4.97;;;-4.20;99.90;;;;;;6131084;23;20025;-81
2023/02/26 07:02:18;;;;;;;12.85;5.55;;;-4.00;1.00;;;;;;6164398;22;20464;-82
2023/02/26 07:06:32;;;;;;;13.07;5.00;;;-3.80;99.90;;;;;;6210348;23;20073;-79
2023/02/26 07:10:28;;;;;;;15.57;5.72;;;-3.70;99.90;;;;;;6106192;23;20015;-80
2023/02/26 07:17:47;;;;;;;12.00;5.18;;;-3.50;1.00;;;;;;6212243;23;20451;-81
2023/02/26 07:28:28;;;;;;;13.55;5.28;;;-3.40;3.70;;;;;;6218211;23;20012;-81
2023/02/26 07:31:19;;;;;;;6.65;4.65;;;-3.30;1.00;;;;;;6206718;23;20409;-83
2023/02/26 07:34:11;;;;;;;14.13;5.45;;;-2.90;1.00;;;;;;6197090;23;20316;-82
2023/02/26 07:36:59;;;;;;;12.32;4.95;;;-2.50;99.90;;;;;;6140438;23;20104;-81
2023/02/26 07:39:46;;;;;;;12.88;4.38;;;-2.30;99.90;;;;;;6111159;23;20670;-83
2023/02/26 07:42:47;;;;;;;10.63;4.63;;;-2.00;1.00;;;;;;6136144;23;20021;-81
2023/02/26 07:45:36;;;;;;;11.10;4.32;;;-1.60;99.90;;;;;;6113747;23;20025;-83
2023/02/26 07:48:27;;;;;;;10.15;3.70;;;-1.40;97.70;;;;;;6132371;23;20047;-84
2023/02/26 07:51:19;;;;;;;7.63;3.97;;;-1.00;1.00;;;;;;6136104;23;20025;-81
2023/02/26 07:54:41;;;;;;;7.15;4.05;;;-0.80;99.90;;;;;;6132873;22;20108;-82
2023/02/26 07:57:32;;;;;;;9.80;3.08;;;-0.30;99.90;;;;;;6146117;23;20025;-82
2023/02/26 08:00:23;;;;;;;7.25;3.03;;;-0.50;1.00;;;;;;6148078;22;20040;-81
2023/02/26 08:03:11;;;;;;;8.90;3.80;;;-0.90;1.00;;;;;;6141262;22;20029;-81
2023/02/26 08:06:24;;;;;;;5.75;3.45;;;-1.20;99.90;;;;;;6137537;23;20032;-81
2023/02/26 08:10:21;;;;;;;5.30;3.22;;;-1.40;99.90;;;;;;6140709;23;20029;-82
2023/02/26 08:13:49;;;;;;;7.10;3.28;;;-1.40;99.90;;;;;;6051148;23;20077;-81
2023/02/26 08:16:56;;;;;;;;;;;;;;;;;;;;;
2023/02/26 08:28:04;;;;;;;7.15;3.78;;;-1.60;99.90;;;;;;6061074;23;20679;-83
2023/02/26 08:30:52;;;;;;;14.55;4.60;;;-1.40;99.90;;;;;;6086046;23;20385;-81
2023/02/26 08:33:43;;;;;;;6.93;3.35;;;-1.00;99.90;;;;;;6132813;23;20053;-81
2023/02/26 08:36:44;;;;;;;9.50;3.20;;;-0.60;99.90;;;;;;6155797;22;20037;-83
2023/02/26 08:39:37;;;;;;;6.32;3.22;;;-0.50;99.90;;;;;;6135173;22;20432;-83
2023/02/26 08:42:39;;;;;;;5.65;3.28;;;-0.50;99.90;;;;;;6155554;23;20071;-83
2023/02/26 08:45:30;;;;;;;7.15;3.88;;;-0.60;99.90;;;;;;6151985;23;20026;-81
2023/02/26 08:48:17;;;;;;;7.18;2.80;;;-0.20;99.90;;;;;;6133087;23;20312;-80
2023/02/26 08:51:05;;;;;;;7.93;3.80;;;0.30;99.90;;;;;;6152113;23;20021;-82
2023/02/26 08:53:52;;;;;;;5.78;2.17;;;0.60;99.90;;;;;;6132521;23;20025;-83
2023/02/26 08:56:44;;;;;;;5.65;3.13;;;0.70;99.90;;;;;;6132325;23;20025;-82
2023/02/26 08:59:34;;;;;;;5.15;3.40;;;0.10;95.50;;;;;;6130554;23;20412;-81
2023/02/26 09:02:24;;;;;;;8.55;3.22;;;0.00;63.80;;;;;;6131322;23;20052;-81
2023/02/26 09:05:13;;;;;;;11.40;3.47;;;-0.20;40.70;;;;;;6131275;23;20103;-81
2023/02/26 09:08:01;;;;;;;6.32;3.00;;;-0.60;13.10;;;;;;6135657;23;20350;-84
2023/02/26 09:10:49;;;;;;;6.72;2.67;;;-1.00;23.50;;;;;;6160784;23;20025;-80
2023/02/26 09:13:38;;;;;;;5.85;2.85;;;-1.20;49.00;;;;;;6153128;23;20034;-82
2023/02/26 09:16:25;;;;;;;5.15;3.35;;;-1.30;76.00;;;;;;6130145;23;20026;-80
2023/02/26 09:19:13;;;;;;;8.68;3.45;;;-1.30;99.90;;;;;;6152911;23;20030;-82
2023/02/26 09:22:00;;;;;;;4.30;3.03;;;-1.40;99.90;;;;;;6150346;23;20443;-80
2023/02/26 09:24:48;;;;;;;4.57;3.03;;;-1.50;99.90;;;;;;6156098;23;20025;-79
2023/02/26 09:27:35;;;;;;;5.68;3.20;;;-1.60;99.90;;;;;;6152799;23;20087;-78
2023/02/26 09:30:23;;;;;;;9.80;3.45;;;-1.50;99.90;;;;;;6132232;23;20068;-79
2023/02/26 09:33:10;;;;;;;8.55;3.20;;;-1.50;99.90;;;;;;6129375;23;20053;-80
2023/02/26 09:36:04;;;;;;;11.43;3.80;;;-1.40;99.90;;;;;;6154268;23;20057;-81
2023/02/26 09:38:51;;;;;;;8.43;4.25;;;-1.40;99.90;;;;;;6150078;23;20046;-80
2023/02/26 09:41:43;;;;;;;5.70;3.13;;;-1.40;99.90;;;;;;6130282;23;20033;-80
2023/02/26 09:44:35;;;;;;;7.35;3.08;;;-1.30;99.90;;;;;;6149863;23;20040;-81
2023/02/26 09:47:29;;;;;;;13.27;3.58;;;-1.30;99.90;;;;;;6150978;23;20021;-78
2023/02/26 09:50:35;;;;;;;4.95;3.10;;;-1.30;99.90;;;;;;6128332;23;20037;-78
2023/02/26 09:53:30;;;;;;;6.15;3.10;;;-1.30;99.90;;;;;;6129620;23;20324;-81
2023/02/26 09:56:21;;;;;;;8.48;3.42;;;-1.40;99.90;;;;;;6154835;23;20025;-82
2023/02/26 09:59:12;;;;;;;7.53;3.53;;;-1.30;99.90;;;;;;6140654;23;20036;-81
2023/02/26 10:02:31;;;;;;;8.82;3.28;;;-1.30;99.90;;;;;;6152492;23;20109;-83
2023/02/26 10:05:32;;;;;;;6.53;2.95;;;-1.30;99.90;;;;;;6152126;23;20025;-79
2023/02/26 10:08:25;;;;;;;8.48;2.70;;;-1.30;99.90;;;;;;6135197;23;20022;-81
2023/02/26 10:11:35;;;;;;;;;;;-1.20;99.90;;;;;;6133421;23;20032;-82
2023/02/26 10:14:29;;;;;;;6.45;2.70;;;-1.30;99.90;;;;;;6131029;23;19927;-81
2023/02/26 10:17:19;;;;;;;3.72;2.63;;;-1.30;99.90;;;;;;6128910;23;20029;-81
2023/02/26 10:20:30;;;;;;;5.57;2.80;;;-1.30;99.90;;;;;;6130478;23;20040;-80
2023/02/26 10:23:28;;;;;;;4.20;3.00;;;-1.20;99.90;;;;;;6136189;22;20032;-82
2023/02/26 10:26:23;;;;;;;10.60;2.83;;;-1.30;99.90;;;;;;6130830;23;20025;-81
2023/02/26 10:29:42;;;;;;;8.15;3.22;;;-1.40;99.90;;;;;;6152867;23;20158;-81
2023/02/26 10:32:49;;;;;;;4.53;2.58;;;-1.40;99.90;;;;;;6131159;23;20032;-81
2023/02/26 10:35:46;;;;;;;4.38;2.53;;;-1.40;99.90;;;;;;6152160;23;20034;-82
2023/02/26 10:38:34;;;;;;;7.63;2.38;;;-1.30;99.90;;;;;;6133408;23;20036;-81
2023/02/26 10:41:26;;;;;;;6.88;3.20;;;-1.10;99.90;;;;;;6111950;23;20384;-80
2023/02/26 10:44:57;;;;;;;4.05;2.90;;;-0.90;99.90;;;;;;6145496;23;20026;-81
2023/02/26 10:47:47;;;;;;;7.65;2.50;;;-0.70;99.90;;;;;;6057608;23;20101;-81
2023/02/26 10:50:36;;;;;;;5.55;2.80;;;-0.70;99.90;;;;;;6135073;23;20079;-83
2023/02/26 10:53:26;;;;;;;4.80;2.70;;;-0.70;99.90;;;;;;6133607;23;20026;-82
2023/02/26 10:56:19;;;;;;;3.72;2.40;;;-0.70;99.90;;;;;;6153548;23;20417;-81
2023/02/26 10:59:06;;;;;;;;;;;-0.60;99.90;;;;;;6153241;23;20025;-81
2023/02/26 11:01:55;;;;;;;5.90;2.92;;;-0.70;99.90;;;;;;6131446;23;19928;-80
2023/02/26 11:04:43;;;;;;;7.13;2.88;;;-0.80;99.90;;;;;;6151512;23;20036;-82
2023/02/26 11:07:34;;;;;;;3.67;2.85;;;-0.90;99.90;;;;;;6131612;23;20032;-81
2023/02/26 11:10:33;;;;;;;7.00;3.28;;;-0.80;99.90;;;;;;6151416;23;20127;-82
2023/02/26 11:13:26;;;;;;;5.55;2.70;;;-0.80;99.90;;;;;;6132733;23;20074;-80
2023/02/26 11:16:15;;;;;;;4.03;2.95;;;-0.70;99.90;;;;;;6152061;23;20029;-83
2023/02/26 11:19:05;;;;;;;5.50;2.97;;;-0.80;99.90;;;;;;6152242;23;20479;-80
2023/02/26 11:21:53;;;;;;;5.03;2.72;;;-0.50;99.90;;;;;;6151995;23;20044;-80
2023/02/26 11:24:46;;;;;;;2.95;2.50;;;-0.30;99.90;;;;;;6149390;23;20379;-80
2023/02/26 11:27:38;;;;;;;;;;;0.20;99.90;;;;;;6152339;23;20037;-81
2023/02/26 11:30:30;;;;;;;2.30;2.10;;;0.20;99.90;;;;;;6149478;23;19931;-79
2023/02/26 11:33:21;;;;;;;3.80;2.58;;;0.20;68.70;;;;;;6112316;23;20033;-81
2023/02/26 11:36:15;;;;;;;7.75;2.63;;;-0.10;26.10;;;;;;6149163;23;20067;-81
2023/02/26 11:39:27;;;;;;;5.20;3.00;;;-0.20;19.00;;;;;;6152090;23;20033;-80
2023/02/26 11:42:17;;;;;;;7.45;2.70;;;0.00;21.90;;;;;;6143509;23;20026;-82
2023/02/26 11:45:08;;;;;;;6.75;2.90;;;0.00;15.20;;;;;;6165273;23;20037;-80
2023/02/26 11:48:03;;;;;;;3.70;2.75;;;0.10;12.70;;;;;;6147487;23;20021;-80
2023/02/26 11:51:03;;;;;;;3.55;2.60;;;0.00;1.60;;;;;;6174353;23;20022;-80
2023/02/26 11:54:02;;;;;;;3.47;2.63;;;-0.10;1.00;;;;;;6163836;23;20029;-81
2023/02/26 11:56:49;;;;;;;2.90;2.55;;;-0.20;1.00;;;;;;6159534;23;20025;-80
2023/02/26 11:59:40;;;;;;;4.50;2.70;;;-0.20;1.00;;;;;;6157479;23;20112;-81
2023/02/26 12:02:35;;;;;;;4.35;2.72;;;-0.30;1.00;;;;;;6152340;23;20502;-83
2023/02/26 12:05:24;;;;;;;3.22;2.80;;;-0.30;1.00;;;;;;6152539;23;20129;-81
2023/02/26 12:08:29;;;;;;;4.22;2.88;;;-0.20;1.00;;;;;;6161853;23;20040;-83
2023/02/26 12:11:31;;;;;;;3.25;2.60;;;-0.10;1.00;;;;;;6143376;23;20025;-79
2023/02/26 12:14:31;;;;;;;4.22;2.45;;;-0.10;1.00;;;;;;6141944;23;20026;-80
2023/02/26 12:17:39;;;;;;;2.92;2.50;;;-0.10;1.00;;;;;;6162659;22;20029;-82
2023/02/26 12:20:37;;;;;;;2.88;2.60;;;-0.20;1.00;;;;;;6132971;23;20025;-80
2023/02/26 12:24:05;;;;;;;2.88;2.67;;;-0.40;1.00;;;;;;6130299;23;20025;-81
2023/02/26 12:27:16;;;;;;;2.78;2.35;;;-0.40;1.00;;;;;;6153613;23;20075;-79
2023/02/26 12:30:41;;;;;;;3.25;2.78;;;-0.50;1.00;;;;;;6152245;23;20025;-82
2023/02/26 12:33:57;;;;;;;3.63;2.80;;;-0.40;1.00;;;;;;6151174;23;20025;-83
2023/02/26 12:37:12;;;;;;;3.97;2.90;;;-0.40;1.00;;;;;;6128746;23;20095;-82
2023/02/26 12:40:37;;;;;;;4.40;2.60;;;-0.50;6.90;;;;;;6155022;23;20026;-82
2023/02/26 12:43:33;;;;;;;3.83;2.50;;;-0.60;29.30;;;;;;6128778;23;20026;-81
2023/02/26 12:46:30;;;;;;;2.95;2.58;;;-0.60;35.90;;;;;;6128063;23;20057;-81
2023/02/26 12:49:47;;;;;;;3.13;2.72;;;-0.50;54.90;;;;;;6151023;23;20026;-81
2023/02/26 12:52:58;;;;;;;2.55;2.35;;;-0.40;33.10;;;;;;6152476;23;20032;-82
2023/02/26 12:56:14;;;;;;;3.72;2.50;;;-0.30;25.30;;;;;;6132332;23;20389;-81
2023/02/26 12:59:28;;;;;;;4.03;2.60;;;-0.30;26.30;;;;;;6151725;23;20037;-81
2023/02/26 13:02:36;;;;;;;3.13;2.42;;;-0.50;32.40;;;;;;6156817;22;20314;-80
2023/02/26 13:05:44;;;;;;;4.50;2.65;;;-0.40;38.50;;;;;;6151082;23;20317;-82
2023/02/26 13:09:05;;;;;;;3.05;2.80;;;-0.40;38.00;;;;;;6151792;23;20026;-81
2023/02/26 13:12:01;;;;;;;3.40;2.50;;;-0.40;53.00;;;;;;6148948;23;20025;-84
2023/02/26 13:15:08;;;;;;;2.63;2.40;;;-0.30;48.00;;;;;;6131741;23;20460;-83
2023/02/26 13:18:11;;;;;;;4.70;2.13;;;-0.30;36.50;;;;;;6151718;23;20033;-82
2023/02/26 13:21:07;;;;;;;3.42;2.10;;;-0.20;24.00;;;;;;6151672;23;20348;-83
2023/02/26 13:24:14;;;;;;;2.97;2.20;;;-0.10;19.50;;;;;;6150439;23;20100;-81
2023/02/26 13:27:03;;;;;;;2.45;2.25;;;0.00;14.00;;;;;;6132594;23;20025;-82
2023/02/26 13:30:08;;;;;;;2.80;2.40;;;0.00;1.00;;;;;;6138274;23;20108;-80
2023/02/26 13:32:57;;;;;;;2.60;2.40;;;0.10;1.00;;;;;;6166577;23;20021;-82
2023/02/26 13:35:48;;;;;;;3.50;2.58;;;0.20;1.00;;;;;;6161941;23;20404;-81
2023/02/26 13:39:05;;;;;;;4.30;3.00;;;0.20;1.00;;;;;;6135795;22;20025;-82
2023/02/26 13:42:02;;;;;;;5.32;2.85;;;0.10;1.00;;;;;;6133176;22;20037;-82
2023/02/26 13:44:52;;;;;;;3.78;2.70;;;-0.10;1.00;;;;;;6149367;23;20095;-83
2023/02/26 13:48:25;;;;;;;3.85;2.47;;;-0.20;1.00;;;;;;6129247;23;20032;-80
2023/02/26 13:51:42;;;;;;;4.43;2.55;;;-0.20;1.00;;;;;;6130174;23;20029;-78
2023/02/26 13:54:44;;;;;;;2.50;2.30;;;-0.30;1.00;;;;;;6131205;23;20040;-82
2023/02/26 13:57:31;;;;;;;2.20;2.00;;;-0.30;1.00;;;;;;6151462;23;20040;-81
2023/02/26 14:00:35;;;;;;;4.88;2.20;;;-0.30;1.00;;;;;;6151932;23;20036;-82
2023/02/26 14:03:25;;;;;;;4.05;1.95;;;-0.10;1.00;;;;;;6133968;23;20028;-83
2023/02/26 14:06:21;;;;;;;2.35;1.92;;;0.00;1.00;;;;;;6131124;23;20021;-82
2023/02/26 14:09:21;;;;;;;2.40;1.90;;;0.20;1.00;;;;;;6130948;23;20030;-81
2023/02/26 14:12:26;;;;;;;1.85;1.70;;;0.50;1.00;;;;;;6131697;23;20093;-82
2023/02/26 14:15:27;;;;;;;2.20;1.80;;;0.60;1.00;;;;;;6133902;22;20112;-83
2023/02/26 14:18:28;;;;;;;3.28;2.13;;;0.50;1.00;;;;;;6155993;23;20044;-82
2023/02/26 14:21:41;;;;;;;2.03;1.83;;;0.50;99.90;;;;;;6153242;22;20029;-83
2023/02/26 14:24:44;;;;;;;1.83;1.60;;;0.60;99.90;;;;;;6113921;23;20036;-83
2023/02/26 14:27:37;;;;;;;1.73;1.63;;;0.40;99.90;;;;;;6132450;23;20017;-84
2023/02/26 14:30:32;;;;;;;1.60;1.40;;;1.10;99.90;;;;;;6150200;23;20773;-80
2023/02/26 14:33:29;;;;;;;1.50;1.40;;;2.80;99.90;;;;;;6150056;23;20129;-82
2023/02/26 14:36:34;;;;;;;1.58;1.48;;;3.20;99.90;;;;;;6132549;23;20761;-84
2023/02/26 14:39:33;;;;;;;2.13;1.50;;;2.50;99.90;;;;;;6132205;23;20091;-82
2023/02/26 14:42:39;;;;;;;1.65;1.55;;;1.90;99.90;;;;;;6152844;23;20033;-82
2023/02/26 14:45:38;;;;;;;2.10;1.90;;;1.70;99.90;;;;;;6151489;23;20026;-82
2023/02/26 14:48:31;;;;;;;2.60;1.58;;;2.20;99.90;;;;;;6152190;23;20025;-82
2023/02/26 14:51:53;;;;;;;1.73;1.27;;;3.60;99.90;;;;;;6151789;23;20029;-82
2023/02/26 14:55:08;;;;;;;1.48;1.30;;;4.80;99.90;;;;;;6129593;23;20104;-79
2023/02/26 14:58:05;;;;;;;5.90;1.77;;;4.50;99.90;;;;;;6157952;22;20120;-83
2023/02/26 15:01:23;;;;;;;1.42;1.33;;;5.00;99.90;;;;;;6128860;23;20025;-83
2023/02/26 15:04:14;;;;;;;2.13;1.60;;;4.50;99.90;;;;;;6128741;23;20417;-85
2023/02/26 15:07:20;;;;;;;1.50;1.40;;;3.80;99.90;;;;;;6128794;23;20021;-81
2023/02/26 15:10:10;;;;;;;1.90;1.40;;;4.10;99.90;;;;;;6130768;23;20033;-81
2023/02/26 15:13:28;;;;;;;1.60;1.50;;;3.60;99.90;;;;;;6151215;23;20106;-81
2023/02/26 15:16:42;;;;;;;1.67;1.40;;;2.80;99.90;;;;;;6155063;23;20639;-82
2023/02/26 15:19:31;;;;;;;2.67;2.05;;;2.40;99.90;;;;;;6154919;23;20026;-81
2023/02/26 15:22:30;;;;;;;3.33;1.65;;;1.90;99.90;;;;;;6150692;23;20037;-82
2023/02/26 15:25:33;;;;;;;1.65;1.50;;;1.80;99.90;;;;;;6130989;23;20026;-81
2023/02/26 15:28:38;;;;;;;1.98;1.70;;;2.00;99.90;;;;;;6150055;23;20025;-82
2023/02/26 15:31:55;;;;;;;1.38;1.27;;;2.00;99.90;;;;;;6131640;23;20032;-80
2023/02/26 15:34:47;;;;;;;2.83;1.70;;;1.70;99.90;;;;;;6152158;23;20538;-82
2023/02/26 15:37:52;;;;;;;3.05;1.80;;;1.40;99.90;;;;;;6129267;23;20040;-85
2023/02/26 15:40:43;;;;;;;3.10;1.70;;;1.10;99.90;;;;;;6134599;23;20021;-85
2023/02/26 15:43:31;;;;;;;2.13;1.80;;;0.80;99.90;;;;;;6153448;23;20032;-85
2023/02/26 15:46:25;;;;;;;14.73;4.75;;;0.70;99.90;;;;;;6131571;23;20021;-83
2023/02/26 15:49:28;;;;;;;143.20;35.15;;;0.50;99.90;;;;;;6153095;23;20029;-82
2023/02/26 15:52:20;;;;;;;13.57;4.28;;;0.40;99.90;;;;;;6155471;23;20515;-87